Impacts TAF Board
For situational awareness. Not to be used for flight planning purposes.
IDs:

KHOU - Houston/Hobby Arpt, TX, US

Issued at 0853 UTC 25 Oct 2020
Updated at 1031 UTC 25 Oct 2020
Potential Impact None Slight Moderate High
Time0953Z 25/11Z 25/12Z 25/13Z 25/14Z 25/15Z 25/16Z 25/17Z 25/18Z 25/19Z 25/20Z 25/21Z 25/22Z 25/23Z>>
Type OBS PRVL PRVL PRVL PRVL PRVL PRVL PRVL PRVL PRVL PRVL PRVL PRVL PRVL
VIS 10 >6 >6 >6 >6 >6 >6 >6 >6 >6 >6 >6 >6 >6
CIG 18 19 19 25 25 25 25 25 25 25 25 25 15 15
Cover BKN OVC OVC BKN BKN BKN BKN BKN BKN BKN BKN BKN BKN BKN
FltCat MVFR MVFR MVFR MVFR MVFR MVFR MVFR MVFR MVFR MVFR MVFR MVFR MVFR MVFR
WX -- -- -- -- -- -- -- -- -- -- -- -- -- --
WDir 70 VRB VRB 160 160 160 160 160 160 160 160 160 120 120
WSpd 4 6 6 7 7 7 7 7 7 7 7 7 7 7
WGst -- -- -- -- -- -- -- -- -- -- -- -- -- --
R04/22
XWnd -2 VRB VRB -6 -6 -6 -6 -6 -6 -6 -6 -6 -7 -7
HWnd 4 VRB VRB -3 -3 -3 -3 -3 -3 -3 -3 -3 2 2
R12/30
XWnd 4 VRB VRB -3 -3 -3 -3 -3 -3 -3 -3 -3 2 2
HWnd 2 VRB VRB 6 6 6 6 6 6 6 6 6 7 7
R17/35
XWnd 4 VRB VRB 2 2 2 2 2 2 2 2 2 6 6
HWnd -1 VRB VRB 7 7 7 7 7 7 7 7 7 4 4
Raw TAF
KHOU 250853Z 2509/2606 VRB06KT P6SM OVC019
  FM251300 16007KT P6SM BKN025 BKN045
  FM252200 12007KT P6SM BKN015


Raw METAR
KHOU 250953Z 07004KT 10SM BKN018 BKN025 18/15 A2994 RMK AO2 SLP142 T01780150
KHOU 250938Z 06005KT 10SM BKN018 BKN025 18/15 A2994 RMK AO2 T01780150
KHOU 250853Z 07004KT 10SM SCT016 SCT040 18/15 A2994 RMK AO2 SLP144 T01780150 58004
KHOU 250753Z 06005KT 10SM FEW030 18/15 A2995 RMK AO2 SLP146 T01780150

METAR Board
Radar Display
Forecast Discussion
For situational awareness. Not to be used for flight planning purposes.